sensor_id;sensor_type;location;lat;lon;timestamp;P1;durP1;ratioP1;P2;durP2;ratioP2
64653;SDS011;51065;48.884;12.598;2022-10-31T00:02:21;19.85;;;8.50;;
64653;SDS011;51065;48.884;12.598;2022-10-31T00:04:47;19.75;;;9.30;;
64653;SDS011;51065;48.884;12.598;2022-10-31T00:07:12;23.40;;;9.23;;
64653;SDS011;51065;48.884;12.598;2022-10-31T00:09:38;17.58;;;8.88;;
64653;SDS011;51065;48.884;12.598;2022-10-31T00:12:03;19.23;;;9.50;;
64653;SDS011;51065;48.884;12.598;2022-10-31T00:14:30;21.02;;;10.00;;
64653;SDS011;51065;48.884;12.598;2022-10-31T00:16:55;22.77;;;9.80;;
64653;SDS011;51065;48.884;12.598;2022-10-31T00:19:21;23.98;;;9.55;;
64653;SDS011;51065;48.884;12.598;2022-10-31T00:21:46;20.67;;;8.07;;
64653;SDS011;51065;48.884;12.598;2022-10-31T00:24:12;19.35;;;9.45;;
64653;SDS011;51065;48.884;12.598;2022-10-31T00:26:38;24.70;;;9.55;;
64653;SDS011;51065;48.884;12.598;2022-10-31T00:29:03;22.00;;;7.90;;
64653;SDS011;51065;48.884;12.598;2022-10-31T00:31:29;18.52;;;8.00;;
64653;SDS011;51065;48.884;12.598;2022-10-31T00:33:55;20.65;;;7.40;;
64653;SDS011;51065;48.884;12.598;2022-10-31T00:36:21;18.80;;;7.10;;
64653;SDS011;51065;48.884;12.598;2022-10-31T00:38:47;17.10;;;7.10;;
64653;SDS011;51065;48.884;12.598;2022-10-31T00:41:14;13.73;;;6.35;;
64653;SDS011;51065;48.884;12.598;2022-10-31T00:43:41;15.25;;;6.40;;
64653;SDS011;51065;48.884;12.598;2022-10-31T00:46:07;16.23;;;7.13;;
64653;SDS011;51065;48.884;12.598;2022-10-31T00:48:33;17.92;;;7.30;;
64653;SDS011;51065;48.884;12.598;2022-10-31T00:50:59;16.40;;;6.28;;
64653;SDS011;51065;48.884;12.598;2022-10-31T00:53:24;16.98;;;6.68;;
64653;SDS011;51065;48.884;12.598;2022-10-31T00:55:50;15.93;;;6.75;;
64653;SDS011;51065;48.884;12.598;2022-10-31T00:58:16;15.77;;;6.60;;
64653;SDS011;51065;48.884;12.598;2022-10-31T01:00:41;13.68;;;6.13;;
64653;SDS011;51065;48.884;12.598;2022-10-31T01:03:07;17.67;;;6.68;;
64653;SDS011;51065;48.884;12.598;2022-10-31T01:05:32;17.58;;;6.82;;
64653;SDS011;51065;48.884;12.598;2022-10-31T01:07:58;15.85;;;6.88;;
64653;SDS011;51065;48.884;12.598;2022-10-31T01:10:24;17.55;;;6.90;;
64653;SDS011;51065;48.884;12.598;2022-10-31T01:12:50;14.38;;;6.55;;
64653;SDS011;51065;48.884;12.598;2022-10-31T01:15:17;15.10;;;6.30;;
64653;SDS011;51065;48.884;12.598;2022-10-31T01:17:44;15.65;;;6.18;;
64653;SDS011;51065;48.884;12.598;2022-10-31T01:20:10;16.17;;;6.32;;
64653;SDS011;51065;48.884;12.598;2022-10-31T01:22:37;13.70;;;5.70;;
64653;SDS011;51065;48.884;12.598;2022-10-31T01:25:03;13.82;;;5.97;;
64653;SDS011;51065;48.884;12.598;2022-10-31T01:27:30;14.60;;;5.38;;
64653;SDS011;51065;48.884;12.598;2022-10-31T01:29:57;13.68;;;5.68;;
64653;SDS011;51065;48.884;12.598;2022-10-31T01:32:22;13.52;;;5.53;;
64653;SDS011;51065;48.884;12.598;2022-10-31T01:34:48;14.07;;;5.50;;
64653;SDS011;51065;48.884;12.598;2022-10-31T01:37:14;12.07;;;4.78;;
64653;SDS011;51065;48.884;12.598;2022-10-31T01:39:40;11.65;;;4.80;;
64653;SDS011;51065;48.884;12.598;2022-10-31T01:42:05;13.18;;;4.72;;
64653;SDS011;51065;48.884;12.598;2022-10-31T01:46:58;15.02;;;5.85;;
64653;SDS011;51065;48.884;12.598;2022-10-31T01:49:49;14.30;;;5.32;;
64653;SDS011;51065;48.884;12.598;2022-10-31T01:54:51;11.60;;;4.65;;
64653;SDS011;51065;48.884;12.598;2022-10-31T01:57:21;8.10;;;4.20;;
64653;SDS011;51065;48.884;12.598;2022-10-31T01:59:48;8.98;;;4.53;;
64653;SDS011;51065;48.884;12.598;2022-10-31T02:02:17;9.02;;;4.40;;
64653;SDS011;51065;48.884;12.598;2022-10-31T02:04:44;9.60;;;4.60;;
64653;SDS011;51065;48.884;12.598;2022-10-31T02:07:15;8.82;;;4.60;;
64653;SDS011;51065;48.884;12.598;2022-10-31T02:09:45;9.25;;;4.72;;
64653;SDS011;51065;48.884;12.598;2022-10-31T02:12:14;10.05;;;4.47;;
64653;SDS011;51065;48.884;12.598;2022-10-31T02:14:40;7.88;;;4.00;;
64653;SDS011;51065;48.884;12.598;2022-10-31T02:17:07;8.32;;;4.50;;
64653;SDS011;51065;48.884;12.598;2022-10-31T02:24:52;44.35;;;7.90;;
64653;SDS011;51065;48.884;12.598;2022-10-31T02:27:42;10.48;;;4.63;;
64653;SDS011;51065;48.884;12.598;2022-10-31T02:38:16;6.80;;;3.63;;
64653;SDS011;51065;48.884;12.598;2022-10-31T02:44:08;12.93;;;5.05;;
64653;SDS011;51065;48.884;12.598;2022-10-31T02:49:33;14.02;;;4.15;;
64653;SDS011;51065;48.884;12.598;2022-10-31T02:52:17;17.10;;;4.00;;
64653;SDS011;51065;48.884;12.598;2022-10-31T02:54:46;20.92;;;5.78;;
64653;SDS011;51065;48.884;12.598;2022-10-31T02:57:13;11.70;;;4.38;;
64653;SDS011;51065;48.884;12.598;2022-10-31T02:59:44;8.85;;;4.03;;
64653;SDS011;51065;48.884;12.598;2022-10-31T03:04:54;11.73;;;4.10;;
64653;SDS011;51065;48.884;12.598;2022-10-31T03:10:34;9.15;;;4.22;;
64653;SDS011;51065;48.884;12.598;2022-10-31T03:15:34;9.95;;;3.88;;
64653;SDS011;51065;48.884;12.598;2022-10-31T03:18:16;7.63;;;4.10;;
64653;SDS011;51065;48.884;12.598;2022-10-31T03:23:39;8.43;;;3.83;;
64653;SDS011;51065;48.884;12.598;2022-10-31T03:26:05;6.22;;;3.40;;
64653;SDS011;51065;48.884;12.598;2022-10-31T03:28:35;6.22;;;3.30;;
64653;SDS011;51065;48.884;12.598;2022-10-31T03:31:08;6.72;;;3.53;;
64653;SDS011;51065;48.884;12.598;2022-10-31T03:33:36;7.65;;;3.60;;
64653;SDS011;51065;48.884;12.598;2022-10-31T03:36:04;10.02;;;3.38;;
64653;SDS011;51065;48.884;12.598;2022-10-31T03:38:31;7.68;;;3.60;;
64653;SDS011;51065;48.884;12.598;2022-10-31T03:40:58;6.72;;;3.78;;
64653;SDS011;51065;48.884;12.598;2022-10-31T03:43:29;7.10;;;3.83;;
64653;SDS011;51065;48.884;12.598;2022-10-31T03:45:57;7.15;;;3.67;;
64653;SDS011;51065;48.884;12.598;2022-10-31T03:48:23;5.35;;;3.10;;
64653;SDS011;51065;48.884;12.598;2022-10-31T03:53:45;10.40;;;3.90;;
64653;SDS011;51065;48.884;12.598;2022-10-31T03:56:33;5.45;;;2.97;;
64653;SDS011;51065;48.884;12.598;2022-10-31T04:01:39;5.22;;;3.28;;
64653;SDS011;51065;48.884;12.598;2022-10-31T04:04:07;5.88;;;3.30;;
64653;SDS011;51065;48.884;12.598;2022-10-31T04:06:34;5.88;;;3.28;;
64653;SDS011;51065;48.884;12.598;2022-10-31T04:09:03;10.82;;;3.83;;
64653;SDS011;51065;48.884;12.598;2022-10-31T04:11:31;6.97;;;3.72;;
64653;SDS011;51065;48.884;12.598;2022-10-31T04:14:00;5.78;;;3.35;;
64653;SDS011;51065;48.884;12.598;2022-10-31T04:16:28;6.38;;;3.45;;
64653;SDS011;51065;48.884;12.598;2022-10-31T04:18:54;6.28;;;3.60;;
64653;SDS011;51065;48.884;12.598;2022-10-31T04:21:25;5.38;;;3.72;;
64653;SDS011;51065;48.884;12.598;2022-10-31T04:23:52;6.15;;;3.30;;
64653;SDS011;51065;48.884;12.598;2022-10-31T04:26:18;8.95;;;3.55;;
64653;SDS011;51065;48.884;12.598;2022-10-31T04:28:44;6.90;;;3.55;;
64653;SDS011;51065;48.884;12.598;2022-10-31T04:31:10;11.23;;;3.42;;
64653;SDS011;51065;48.884;12.598;2022-10-31T04:33:37;7.60;;;3.65;;
64653;SDS011;51065;48.884;12.598;2022-10-31T04:36:03;10.55;;;4.38;;
64653;SDS011;51065;48.884;12.598;2022-10-31T04:38:29;12.05;;;4.18;;
64653;SDS011;51065;48.884;12.598;2022-10-31T04:40:55;7.57;;;3.40;;
64653;SDS011;51065;48.884;12.598;2022-10-31T04:43:21;8.40;;;4.10;;
64653;SDS011;51065;48.884;12.598;2022-10-31T04:45:46;7.97;;;3.92;;
64653;SDS011;51065;48.884;12.598;2022-10-31T04:48:12;9.15;;;3.85;;
64653;SDS011;51065;48.884;12.598;2022-10-31T04:50:38;10.20;;;3.90;;
64653;SDS011;51065;48.884;12.598;2022-10-31T04:53:03;6.82;;;3.70;;
64653;SDS011;51065;48.884;12.598;2022-10-31T04:55:29;6.38;;;3.38;;
64653;SDS011;51065;48.884;12.598;2022-10-31T04:57:54;8.50;;;3.90;;
64653;SDS011;51065;48.884;12.598;2022-10-31T05:00:21;7.23;;;3.47;;
64653;SDS011;51065;48.884;12.598;2022-10-31T05:02:51;8.88;;;4.10;;
64653;SDS011;51065;48.884;12.598;2022-10-31T05:05:18;11.20;;;4.40;;
64653;SDS011;51065;48.884;12.598;2022-10-31T05:07:46;6.18;;;3.47;;
64653;SDS011;51065;48.884;12.598;2022-10-31T05:10:14;9.38;;;4.13;;
64653;SDS011;51065;48.884;12.598;2022-10-31T05:12:45;9.07;;;3.65;;
64653;SDS011;51065;48.884;12.598;2022-10-31T05:15:15;6.57;;;3.67;;
64653;SDS011;51065;48.884;12.598;2022-10-31T05:17:42;6.78;;;3.22;;
64653;SDS011;51065;48.884;12.598;2022-10-31T05:20:09;7.63;;;3.75;;
64653;SDS011;51065;48.884;12.598;2022-10-31T05:22:35;8.35;;;4.18;;
64653;SDS011;51065;48.884;12.598;2022-10-31T05:25:01;7.00;;;4.20;;
64653;SDS011;51065;48.884;12.598;2022-10-31T05:27:27;6.68;;;3.70;;
64653;SDS011;51065;48.884;12.598;2022-10-31T05:29:52;6.15;;;3.33;;
64653;SDS011;51065;48.884;12.598;2022-10-31T05:32:18;19.63;;;4.57;;
64653;SDS011;51065;48.884;12.598;2022-10-31T05:34:43;6.57;;;3.58;;
64653;SDS011;51065;48.884;12.598;2022-10-31T05:37:09;6.70;;;3.50;;
64653;SDS011;51065;48.884;12.598;2022-10-31T05:39:34;6.10;;;3.63;;
64653;SDS011;51065;48.884;12.598;2022-10-31T05:42:00;10.18;;;4.10;;
64653;SDS011;51065;48.884;12.598;2022-10-31T05:44:26;6.68;;;3.75;;
64653;SDS011;51065;48.884;12.598;2022-10-31T05:46:51;7.53;;;4.10;;
64653;SDS011;51065;48.884;12.598;2022-10-31T05:49:17;7.93;;;3.97;;
64653;SDS011;51065;48.884;12.598;2022-10-31T05:51:43;10.73;;;4.85;;
64653;SDS011;51065;48.884;12.598;2022-10-31T05:54:08;7.32;;;3.97;;
64653;SDS011;51065;48.884;12.598;2022-10-31T05:56:34;8.88;;;3.78;;
64653;SDS011;51065;48.884;12.598;2022-10-31T05:59:00;11.80;;;4.30;;
64653;SDS011;51065;48.884;12.598;2022-10-31T06:01:25;12.65;;;4.22;;
64653;SDS011;51065;48.884;12.598;2022-10-31T06:03:51;9.63;;;5.28;;
64653;SDS011;51065;48.884;12.598;2022-10-31T06:06:16;9.73;;;4.97;;
64653;SDS011;51065;48.884;12.598;2022-10-31T06:08:42;11.65;;;4.60;;
64653;SDS011;51065;48.884;12.598;2022-10-31T06:11:07;7.05;;;3.83;;
64653;SDS011;51065;48.884;12.598;2022-10-31T06:13:33;6.47;;;3.70;;
64653;SDS011;51065;48.884;12.598;2022-10-31T06:15:58;10.70;;;3.72;;
64653;SDS011;51065;48.884;12.598;2022-10-31T06:18:24;7.82;;;3.97;;
64653;SDS011;51065;48.884;12.598;2022-10-31T06:20:50;8.02;;;3.58;;
64653;SDS011;51065;48.884;12.598;2022-10-31T06:23:15;9.20;;;3.95;;
64653;SDS011;51065;48.884;12.598;2022-10-31T06:25:41;7.70;;;4.10;;
64653;SDS011;51065;48.884;12.598;2022-10-31T06:28:06;6.82;;;3.70;;
64653;SDS011;51065;48.884;12.598;2022-10-31T06:30:32;12.30;;;3.80;;
64653;SDS011;51065;48.884;12.598;2022-10-31T06:33:01;16.50;;;5.15;;
64653;SDS011;51065;48.884;12.598;2022-10-31T06:35:28;11.85;;;4.68;;
64653;SDS011;51065;48.884;12.598;2022-10-31T06:37:54;10.10;;;3.70;;
64653;SDS011;51065;48.884;12.598;2022-10-31T06:40:20;8.00;;;3.90;;
64653;SDS011;51065;48.884;12.598;2022-10-31T06:42:47;10.57;;;4.68;;
64653;SDS011;51065;48.884;12.598;2022-10-31T06:45:20;16.50;;;7.28;;
64653;SDS011;51065;48.884;12.598;2022-10-31T06:47:50;8.52;;;3.85;;
64653;SDS011;51065;48.884;12.598;2022-10-31T06:50:17;25.48;;;5.88;;
64653;SDS011;51065;48.884;12.598;2022-10-31T06:52:42;20.92;;;6.05;;
64653;SDS011;51065;48.884;12.598;2022-10-31T06:55:08;8.82;;;3.95;;
64653;SDS011;51065;48.884;12.598;2022-10-31T06:57:33;40.55;;;6.22;;
64653;SDS011;51065;48.884;12.598;2022-10-31T06:59:59;16.38;;;5.75;;
64653;SDS011;51065;48.884;12.598;2022-10-31T07:02:24;11.13;;;4.85;;
64653;SDS011;51065;48.884;12.598;2022-10-31T07:04:50;15.50;;;4.88;;
64653;SDS011;51065;48.884;12.598;2022-10-31T07:07:16;27.55;;;13.05;;
64653;SDS011;51065;48.884;12.598;2022-10-31T07:09:41;12.40;;;4.72;;
64653;SDS011;51065;48.884;12.598;2022-10-31T07:12:07;9.48;;;4.10;;
64653;SDS011;51065;48.884;12.598;2022-10-31T07:14:32;11.50;;;4.70;;
64653;SDS011;51065;48.884;12.598;2022-10-31T07:16:58;20.70;;;6.32;;
64653;SDS011;51065;48.884;12.598;2022-10-31T07:19:24;12.35;;;5.20;;
64653;SDS011;51065;48.884;12.598;2022-10-31T07:21:49;11.10;;;4.50;;
64653;SDS011;51065;48.884;12.598;2022-10-31T07:24:15;12.48;;;5.05;;
64653;SDS011;51065;48.884;12.598;2022-10-31T07:26:40;9.30;;;5.43;;
64653;SDS011;51065;48.884;12.598;2022-10-31T07:29:07;10.73;;;4.97;;
64653;SDS011;51065;48.884;12.598;2022-10-31T07:31:32;12.27;;;4.75;;
64653;SDS011;51065;48.884;12.598;2022-10-31T07:33:58;9.90;;;5.35;;
64653;SDS011;51065;48.884;12.598;2022-10-31T07:36:23;13.82;;;4.90;;
64653;SDS011;51065;48.884;12.598;2022-10-31T07:38:49;10.23;;;4.30;;
64653;SDS011;51065;48.884;12.598;2022-10-31T07:41:15;8.35;;;4.32;;
64653;SDS011;51065;48.884;12.598;2022-10-31T07:43:40;21.55;;;4.47;;
64653;SDS011;51065;48.884;12.598;2022-10-31T07:46:06;10.52;;;3.97;;
64653;SDS011;51065;48.884;12.598;2022-10-31T07:48:31;13.15;;;4.43;;
64653;SDS011;51065;48.884;12.598;2022-10-31T07:50:57;11.27;;;4.22;;
64653;SDS011;51065;48.884;12.598;2022-10-31T07:53:22;28.92;;;5.40;;
64653;SDS011;51065;48.884;12.598;2022-10-31T07:55:48;22.38;;;4.65;;
64653;SDS011;51065;48.884;12.598;2022-10-31T07:58:14;16.30;;;4.07;;
64653;SDS011;51065;48.884;12.598;2022-10-31T08:00:41;12.45;;;3.97;;
64653;SDS011;51065;48.884;12.598;2022-10-31T08:03:11;10.68;;;4.28;;
64653;SDS011;51065;48.884;12.598;2022-10-31T08:05:38;8.07;;;4.03;;
64653;SDS011;51065;48.884;12.598;2022-10-31T08:08:05;11.65;;;4.47;;
64653;SDS011;51065;48.884;12.598;2022-10-31T08:10:32;17.88;;;4.50;;
64653;SDS011;51065;48.884;12.598;2022-10-31T08:12:59;11.80;;;5.28;;
64653;SDS011;51065;48.884;12.598;2022-10-31T08:15:26;9.80;;;4.28;;
64653;SDS011;51065;48.884;12.598;2022-10-31T08:17:51;16.13;;;4.10;;
64653;SDS011;51065;48.884;12.598;2022-10-31T08:20:17;11.45;;;4.10;;
64653;SDS011;51065;48.884;12.598;2022-10-31T08:22:51;8.57;;;4.38;;
64653;SDS011;51065;48.884;12.598;2022-10-31T08:25:24;11.00;;;4.57;;
64653;SDS011;51065;48.884;12.598;2022-10-31T08:27:52;7.65;;;4.28;;
64653;SDS011;51065;48.884;12.598;2022-10-31T08:30:19;12.98;;;5.30;;
64653;SDS011;51065;48.884;12.598;2022-10-31T08:32:46;10.57;;;4.55;;
64653;SDS011;51065;48.884;12.598;2022-10-31T08:35:13;9.48;;;4.50;;
64653;SDS011;51065;48.884;12.598;2022-10-31T08:37:39;10.10;;;4.43;;
64653;SDS011;51065;48.884;12.598;2022-10-31T08:40:04;12.55;;;5.13;;
64653;SDS011;51065;48.884;12.598;2022-10-31T08:42:31;10.40;;;4.85;;
64653;SDS011;51065;48.884;12.598;2022-10-31T08:44:57;12.65;;;4.80;;
64653;SDS011;51065;48.884;12.598;2022-10-31T08:47:22;8.20;;;4.15;;
64653;SDS011;51065;48.884;12.598;2022-10-31T08:49:48;9.55;;;4.90;;
64653;SDS011;51065;48.884;12.598;2022-10-31T08:52:14;14.43;;;5.18;;
64653;SDS011;51065;48.884;12.598;2022-10-31T08:54:40;12.68;;;5.22;;
64653;SDS011;51065;48.884;12.598;2022-10-31T08:57:05;11.77;;;5.32;;
64653;SDS011;51065;48.884;12.598;2022-10-31T08:59:31;15.35;;;5.20;;
64653;SDS011;51065;48.884;12.598;2022-10-31T09:01:57;12.95;;;5.15;;
64653;SDS011;51065;48.884;12.598;2022-10-31T09:04:22;14.25;;;5.57;;
64653;SDS011;51065;48.884;12.598;2022-10-31T09:06:48;13.75;;;5.28;;
64653;SDS011;51065;48.884;12.598;2022-10-31T09:09:13;12.00;;;5.18;;
64653;SDS011;51065;48.884;12.598;2022-10-31T09:11:39;14.35;;;5.35;;
64653;SDS011;51065;48.884;12.598;2022-10-31T09:14:05;12.35;;;5.55;;
64653;SDS011;51065;48.884;12.598;2022-10-31T09:16:30;19.92;;;5.85;;
64653;SDS011;51065;48.884;12.598;2022-10-31T09:18:56;13.88;;;5.85;;
64653;SDS011;51065;48.884;12.598;2022-10-31T09:21:21;13.98;;;6.05;;
64653;SDS011;51065;48.884;12.598;2022-10-31T09:23:47;19.58;;;6.18;;
64653;SDS011;51065;48.884;12.598;2022-10-31T09:26:13;19.67;;;6.10;;
64653;SDS011;51065;48.884;12.598;2022-10-31T09:28:38;17.88;;;6.25;;
64653;SDS011;51065;48.884;12.598;2022-10-31T09:31:04;16.20;;;6.45;;
64653;SDS011;51065;48.884;12.598;2022-10-31T09:33:29;14.07;;;6.32;;
64653;SDS011;51065;48.884;12.598;2022-10-31T09:35:57;20.90;;;6.82;;
64653;SDS011;51065;48.884;12.598;2022-10-31T09:38:23;14.52;;;6.35;;
64653;SDS011;51065;48.884;12.598;2022-10-31T09:43:33;18.63;;;6.78;;
64653;SDS011;51065;48.884;12.598;2022-10-31T09:46:13;18.02;;;6.15;;
64653;SDS011;51065;48.884;12.598;2022-10-31T09:51:31;17.23;;;7.15;;
64653;SDS011;51065;48.884;12.598;2022-10-31T09:56:46;16.52;;;6.78;;
64653;SDS011;51065;48.884;12.598;2022-10-31T09:59:24;16.17;;;6.93;;
64653;SDS011;51065;48.884;12.598;2022-10-31T10:04:33;21.67;;;7.88;;
64653;SDS011;51065;48.884;12.598;2022-10-31T10:07:01;19.23;;;8.23;;
64653;SDS011;51065;48.884;12.598;2022-10-31T10:09:34;21.02;;;7.80;;
64653;SDS011;51065;48.884;12.598;2022-10-31T10:25:21;22.13;;;8.35;;
64653;SDS011;51065;48.884;12.598;2022-10-31T10:33:28;21.50;;;8.75;;
64653;SDS011;51065;48.884;12.598;2022-10-31T10:36:04;19.17;;;7.95;;
64653;SDS011;51065;48.884;12.598;2022-10-31T10:41:14;20.95;;;8.38;;
64653;SDS011;51065;48.884;12.598;2022-10-31T10:43:42;19.20;;;8.48;;
64653;SDS011;51065;48.884;12.598;2022-10-31T10:49:15;21.00;;;8.77;;
64653;SDS011;51065;48.884;12.598;2022-10-31T10:59:33;20.80;;;9.70;;
64653;SDS011;51065;48.884;12.598;2022-10-31T11:01:59;20.05;;;9.07;;
64653;SDS011;51065;48.884;12.598;2022-10-31T11:07:05;22.85;;;10.60;;
64653;SDS011;51065;48.884;12.598;2022-10-31T11:09:32;20.77;;;9.68;;
64653;SDS011;51065;48.884;12.598;2022-10-31T11:11:58;19.80;;;10.05;;
64653;SDS011;51065;48.884;12.598;2022-10-31T11:14:30;19.58;;;10.57;;
64653;SDS011;51065;48.884;12.598;2022-10-31T11:19:45;22.10;;;11.05;;
64653;SDS011;51065;48.884;12.598;2022-10-31T11:22:15;19.77;;;10.25;;
64653;SDS011;51065;48.884;12.598;2022-10-31T11:24:42;20.23;;;10.48;;
64653;SDS011;51065;48.884;12.598;2022-10-31T11:27:21;22.63;;;10.90;;
64653;SDS011;51065;48.884;12.598;2022-10-31T11:29:48;25.00;;;12.05;;
64653;SDS011;51065;48.884;12.598;2022-10-31T11:32:19;22.48;;;11.40;;
64653;SDS011;51065;48.884;12.598;2022-10-31T11:34:53;20.20;;;10.65;;
64653;SDS011;51065;48.884;12.598;2022-10-31T11:37:29;18.75;;;10.50;;
64653;SDS011;51065;48.884;12.598;2022-10-31T11:40:00;20.20;;;11.07;;
64653;SDS011;51065;48.884;12.598;2022-10-31T11:42:30;21.98;;;10.43;;
64653;SDS011;51065;48.884;12.598;2022-10-31T11:45:05;20.15;;;10.70;;
64653;SDS011;51065;48.884;12.598;2022-10-31T11:47:43;19.15;;;10.45;;
64653;SDS011;51065;48.884;12.598;2022-10-31T11:50:17;20.10;;;10.80;;
64653;SDS011;51065;48.884;12.598;2022-10-31T11:52:47;20.70;;;10.77;;
64653;SDS011;51065;48.884;12.598;2022-10-31T11:55:15;20.48;;;11.32;;
64653;SDS011;51065;48.884;12.598;2022-10-31T11:57:54;19.80;;;10.30;;
64653;SDS011;51065;48.884;12.598;2022-10-31T12:00:25;20.23;;;10.57;;
64653;SDS011;51065;48.884;12.598;2022-10-31T12:08:20;20.60;;;10.75;;
64653;SDS011;51065;48.884;12.598;2022-10-31T12:11:02;21.67;;;11.32;;
64653;SDS011;51065;48.884;12.598;2022-10-31T12:14:17;21.08;;;10.82;;
64653;SDS011;51065;48.884;12.598;2022-10-31T12:17:06;23.92;;;12.18;;
64653;SDS011;51065;48.884;12.598;2022-10-31T12:25:11;23.77;;;12.13;;
64653;SDS011;51065;48.884;12.598;2022-10-31T12:27:59;21.60;;;11.27;;
64653;SDS011;51065;48.884;12.598;2022-10-31T12:44:34;22.87;;;12.50;;
64653;SDS011;51065;48.884;12.598;2022-10-31T12:55:38;24.13;;;12.20;;
64653;SDS011;51065;48.884;12.598;2022-10-31T12:58:32;22.63;;;12.13;;
64653;SDS011;51065;48.884;12.598;2022-10-31T13:01:07;22.98;;;12.50;;
64653;SDS011;51065;48.884;12.598;2022-10-31T13:03:35;24.58;;;13.20;;
64653;SDS011;51065;48.884;12.598;2022-10-31T13:06:11;22.48;;;11.75;;
64653;SDS011;51065;48.884;12.598;2022-10-31T13:08:53;22.92;;;12.15;;
64653;SDS011;51065;48.884;12.598;2022-10-31T13:16:56;22.45;;;12.00;;
64653;SDS011;51065;48.884;12.598;2022-10-31T13:19:42;24.15;;;13.20;;
64653;SDS011;51065;48.884;12.598;2022-10-31T13:22:12;23.70;;;12.05;;
64653;SDS011;51065;48.884;12.598;2022-10-31T13:24:53;25.17;;;13.52;;
64653;SDS011;51065;48.884;12.598;2022-10-31T13:27:48;26.65;;;13.07;;
64653;SDS011;51065;48.884;12.598;2022-10-31T13:30:22;21.15;;;11.68;;
64653;SDS011;51065;48.884;12.598;2022-10-31T13:35:38;23.67;;;12.55;;
64653;SDS011;51065;48.884;12.598;2022-10-31T13:43:20;24.92;;;13.70;;
64653;SDS011;51065;48.884;12.598;2022-10-31T13:45:51;25.02;;;14.57;;
64653;SDS011;51065;48.884;12.598;2022-10-31T13:48:28;26.80;;;13.68;;
64653;SDS011;51065;48.884;12.598;2022-10-31T13:51:06;25.63;;;11.88;;
64653;SDS011;51065;48.884;12.598;2022-10-31T13:58:33;27.98;;;13.95;;
64653;SDS011;51065;48.884;12.598;2022-10-31T14:03:28;27.90;;;14.30;;
64653;SDS011;51065;48.884;12.598;2022-10-31T14:05:55;24.17;;;13.93;;
64653;SDS011;51065;48.884;12.598;2022-10-31T14:08:22;23.88;;;12.80;;
64653;SDS011;51065;48.884;12.598;2022-10-31T14:10:50;24.77;;;13.45;;
64653;SDS011;51065;48.884;12.598;2022-10-31T14:13:22;26.25;;;13.90;;
64653;SDS011;51065;48.884;12.598;2022-10-31T14:16:17;25.40;;;13.40;;
64653;SDS011;51065;48.884;12.598;2022-10-31T14:18:58;27.13;;;13.68;;
64653;SDS011;51065;48.884;12.598;2022-10-31T14:21:42;25.60;;;14.00;;
64653;SDS011;51065;48.884;12.598;2022-10-31T14:24:52;23.67;;;13.52;;
64653;SDS011;51065;48.884;12.598;2022-10-31T14:27:04;25.80;;;13.65;;
64653;SDS011;51065;48.884;12.598;2022-10-31T14:29:46;26.38;;;14.48;;
64653;SDS011;51065;48.884;12.598;2022-10-31T14:34:42;28.30;;;15.23;;
64653;SDS011;51065;48.884;12.598;2022-10-31T14:50:51;27.95;;;15.18;;
64653;SDS011;51065;48.884;12.598;2022-10-31T14:53:23;31.17;;;17.77;;
64653;SDS011;51065;48.884;12.598;2022-10-31T14:55:51;27.42;;;15.13;;
64653;SDS011;51065;48.884;12.598;2022-10-31T15:00:56;32.00;;;17.70;;
64653;SDS011;51065;48.884;12.598;2022-10-31T15:05:54;28.92;;;16.52;;
64653;SDS011;51065;48.884;12.598;2022-10-31T15:08:32;30.30;;;16.55;;
64653;SDS011;51065;48.884;12.598;2022-10-31T15:11:06;30.10;;;15.73;;
64653;SDS011;51065;48.884;12.598;2022-10-31T15:13:40;33.22;;;16.90;;
64653;SDS011;51065;48.884;12.598;2022-10-31T15:16:12;31.95;;;16.00;;
64653;SDS011;51065;48.884;12.598;2022-10-31T15:19:15;34.35;;;19.08;;
64653;SDS011;51065;48.884;12.598;2022-10-31T15:21:35;31.60;;;19.30;;
64653;SDS011;51065;48.884;12.598;2022-10-31T15:24:05;32.38;;;18.35;;
64653;SDS011;51065;48.884;12.598;2022-10-31T15:26:32;35.85;;;20.08;;
64653;SDS011;51065;48.884;12.598;2022-10-31T15:29:05;33.05;;;17.77;;
64653;SDS011;51065;48.884;12.598;2022-10-31T15:31:36;34.28;;;18.23;;
64653;SDS011;51065;48.884;12.598;2022-10-31T15:34:05;30.98;;;17.13;;
64653;SDS011;51065;48.884;12.598;2022-10-31T15:36:38;31.45;;;17.63;;
64653;SDS011;51065;48.884;12.598;2022-10-31T15:39:04;31.95;;;16.60;;
64653;SDS011;51065;48.884;12.598;2022-10-31T15:44:12;31.20;;;18.45;;
64653;SDS011;51065;48.884;12.598;2022-10-31T15:46:42;32.13;;;17.98;;
64653;SDS011;51065;48.884;12.598;2022-10-31T15:49:21;31.38;;;17.73;;
64653;SDS011;51065;48.884;12.598;2022-10-31T15:51:56;29.45;;;15.90;;
64653;SDS011;51065;48.884;12.598;2022-10-31T15:54:24;35.65;;;17.48;;
64653;SDS011;51065;48.884;12.598;2022-10-31T15:56:51;33.13;;;17.70;;
64653;SDS011;51065;48.884;12.598;2022-10-31T15:59:19;30.25;;;16.08;;
64653;SDS011;51065;48.884;12.598;2022-10-31T16:04:23;32.03;;;16.30;;
64653;SDS011;51065;48.884;12.598;2022-10-31T16:07:01;32.30;;;17.38;;
64653;SDS011;51065;48.884;12.598;2022-10-31T16:09:37;28.67;;;16.05;;
64653;SDS011;51065;48.884;12.598;2022-10-31T16:12:41;27.85;;;15.30;;
64653;SDS011;51065;48.884;12.598;2022-10-31T16:15:15;26.45;;;15.10;;
64653;SDS011;51065;48.884;12.598;2022-10-31T16:17:45;31.88;;;16.05;;
64653;SDS011;51065;48.884;12.598;2022-10-31T16:20:19;38.28;;;20.50;;
64653;SDS011;51065;48.884;12.598;2022-10-31T16:22:50;33.88;;;20.02;;
64653;SDS011;51065;48.884;12.598;2022-10-31T16:25:29;32.95;;;18.35;;
64653;SDS011;51065;48.884;12.598;2022-10-31T16:28:04;36.03;;;19.30;;
64653;SDS011;51065;48.884;12.598;2022-10-31T16:30:40;33.38;;;18.77;;
64653;SDS011;51065;48.884;12.598;2022-10-31T16:33:20;35.08;;;18.63;;
64653;SDS011;51065;48.884;12.598;2022-10-31T16:35:46;31.65;;;17.33;;
64653;SDS011;51065;48.884;12.598;2022-10-31T16:38:13;33.03;;;18.23;;
64653;SDS011;51065;48.884;12.598;2022-10-31T16:40:39;30.83;;;17.73;;
64653;SDS011;51065;48.884;12.598;2022-10-31T16:43:05;32.67;;;17.35;;
64653;SDS011;51065;48.884;12.598;2022-10-31T16:45:36;30.38;;;17.58;;
64653;SDS011;51065;48.884;12.598;2022-10-31T16:48:06;38.00;;;22.10;;
64653;SDS011;51065;48.884;12.598;2022-10-31T16:50:35;39.72;;;21.98;;
64653;SDS011;51065;48.884;12.598;2022-10-31T16:53:02;58.47;;;24.08;;
64653;SDS011;51065;48.884;12.598;2022-10-31T16:55:28;40.67;;;23.27;;
64653;SDS011;51065;48.884;12.598;2022-10-31T16:57:55;40.47;;;21.63;;
64653;SDS011;51065;48.884;12.598;2022-10-31T17:00:23;39.65;;;20.52;;
64653;SDS011;51065;48.884;12.598;2022-10-31T17:02:50;37.60;;;21.52;;
64653;SDS011;51065;48.884;12.598;2022-10-31T17:05:19;37.38;;;21.13;;
64653;SDS011;51065;48.884;12.598;2022-10-31T17:07:46;36.65;;;21.65;;
64653;SDS011;51065;48.884;12.598;2022-10-31T17:10:13;37.08;;;19.70;;
64653;SDS011;51065;48.884;12.598;2022-10-31T17:12:41;42.15;;;22.55;;
64653;SDS011;51065;48.884;12.598;2022-10-31T17:15:19;40.65;;;22.73;;
64653;SDS011;51065;48.884;12.598;2022-10-31T17:17:47;39.30;;;23.08;;
64653;SDS011;51065;48.884;12.598;2022-10-31T17:20:20;41.03;;;24.08;;
64653;SDS011;51065;48.884;12.598;2022-10-31T17:22:55;63.20;;;30.73;;
64653;SDS011;51065;48.884;12.598;2022-10-31T17:25:23;49.25;;;27.52;;